Time;durP1;ratioP1;P1;durP2;ratioP2;P2;SDS_P1;SDS_P2;PMS_P1;PMS_P2;Temp;Humidity;BMP_temperature;BMP_pressure;BME280_temperature;BME280_humidity;BME280_pressure;Samples;Min_cycle;Max_cycle;Signal;HPM_P1;HPM_P2
2022/08/11 00:02:02;;;;;;;5.70;4.70;;;;;;;;;;5033201;28;20038;-74
2022/08/11 00:04:34;;;;;;;5.93;4.80;;;;;;;;;;5036560;28;20071;-74
2022/08/11 00:07:01;;;;;;;7.85;4.57;;;;;;;;;;5052735;28;20412;-74
2022/08/11 00:09:31;;;;;;;5.50;4.70;;;;;;;;;;5053241;28;20047;-74
2022/08/11 00:11:58;;;;;;;6.85;4.80;;;;;;;;;;5043025;28;20085;-74
2022/08/11 00:14:27;;;;;;;9.10;4.90;;;;;;;;;;5033842;28;20049;-74
2022/08/11 00:16:57;;;;;;;5.20;4.65;;;;;;;;;;5032055;28;20049;-74
2022/08/11 00:19:29;;;;;;;5.43;4.80;;;;;;;;;;5033887;28;20044;-74
2022/08/11 00:21:57;;;;;;;8.25;4.60;;;;;;;;;;5064693;28;20053;-74
2022/08/11 00:24:24;;;;;;;6.03;5.00;;;;;;;;;;5032820;28;20103;-74
2022/08/11 00:26:51;;;;;;;5.32;4.82;;;;;;;;;;5065574;28;20124;-74
2022/08/11 00:29:17;;;;;;;6.97;5.40;;;;;;;;;;5065618;28;20050;-74
2022/08/11 00:31:46;;;;;;;5.47;4.97;;;;;;;;;;5053211;28;20492;-74
2022/08/11 00:34:12;;;;;;;7.53;5.50;;;;;;;;;;5049985;28;20469;-74
2022/08/11 00:36:41;;;;;;;7.22;6.20;;;;;;;;;;5031149;28;20061;-74
2022/08/11 00:39:09;;;;;;;8.73;6.55;;;;;;;;;;5031588;28;20045;-74
2022/08/11 00:41:39;;;;;;;7.53;6.20;;;;;;;;;;5033479;28;20053;-74
2022/08/11 00:44:14;;;;;;;6.55;5.95;;;;;;;;;;5032565;28;20052;-74
2022/08/11 00:46:40;;;;;;;8.95;6.45;;;;;;;;;;5065196;28;20046;-74
2022/08/11 00:49:24;;;;;;;10.00;6.45;;;;;;;;;;5032758;28;20067;-74
2022/08/11 00:52:08;;;;;;;8.35;6.35;;;;;;;;;;5064262;28;20107;-74
2022/08/11 00:54:53;;;;;;;8.73;6.88;;;;;;;;;;5065261;28;20132;-74
2022/08/11 00:57:26;;;;;;;7.03;6.32;;;;;;;;;;5064408;28;20056;-74
2022/08/11 01:00:03;;;;;;;7.38;6.25;;;;;;;;;;5065099;28;20132;-74
2022/08/11 01:02:44;;;;;;;7.68;6.82;;;;;;;;;;5033055;28;20049;-74
2022/08/11 01:05:28;;;;;;;7.90;6.70;;;;;;;;;;5032133;28;20564;-74
2022/08/11 01:08:14;;;;;;;7.07;6.38;;;;;;;;;;5064609;28;20054;-74
2022/08/11 01:10:40;;;;;;;8.32;6.50;;;;;;;;;;5033058;28;20041;-74
2022/08/11 01:13:15;;;;;;;10.30;6.32;;;;;;;;;;5032005;28;20045;-74
2022/08/11 01:16:00;;;;;;;7.25;6.10;;;;;;;;;;5064567;28;20045;-74
2022/08/11 01:18:26;;;;;;;7.43;6.30;;;;;;;;;;5031716;28;20064;-74
2022/08/11 01:21:11;;;;;;;10.15;6.50;;;;;;;;;;5032694;28;20489;-74
2022/08/11 01:23:55;;;;;;;8.38;6.28;;;;;;;;;;5064748;28;20501;-74
2022/08/11 01:26:40;;;;;;;8.23;6.28;;;;;;;;;;5031963;28;20041;-74
2022/08/11 01:29:09;;;;;;;7.03;6.13;;;;;;;;;;5032425;28;20397;-74
2022/08/11 01:31:47;;;;;;;9.20;6.10;;;;;;;;;;5041277;28;20041;-74
2022/08/11 01:34:32;;;;;;;7.55;6.72;;;;;;;;;;5050798;28;20059;-74
2022/08/11 01:37:22;;;;;;;7.45;6.13;;;;;;;;;;5050416;28;20072;-74
2022/08/11 01:40:09;;;;;;;7.13;6.22;;;;;;;;;;5030039;28;20390;-74
2022/08/11 01:45:39;;;;;;;7.50;6.38;;;;;;;;;;5067484;28;20046;-74
2022/08/11 01:48:13;;;;;;;7.13;6.15;;;;;;;;;;5038300;28;20401;-74
2022/08/11 01:50:52;;;;;;;7.53;6.68;;;;;;;;;;5068078;28;20402;-74
2022/08/11 01:53:18;;;;;;;8.35;6.50;;;;;;;;;;5035630;28;20156;-74
2022/08/11 01:56:01;;;;;;;8.65;6.53;;;;;;;;;;5036174;28;20509;-74
2022/08/11 01:58:38;;;;;;;7.40;6.40;;;;;;;;;;5068470;28;20056;-74
2022/08/11 02:01:07;;;;;;;8.40;6.78;;;;;;;;;;5035305;28;20041;-74
2022/08/11 02:03:36;;;;;;;6.70;6.05;;;;;;;;;;5052681;28;20049;-74
2022/08/11 02:09:09;;;;;;;7.88;6.28;;;;;;;;;;5055545;28;20386;-74
2022/08/11 02:11:36;;;;;;;8.40;6.03;;;;;;;;;;5038525;28;20053;-74
2022/08/11 02:14:19;;;;;;;7.20;6.50;;;;;;;;;;5034096;28;20045;-74
2022/08/11 02:16:53;;;;;;;6.45;5.82;;;;;;;;;;5034799;28;20068;-74
2022/08/11 02:25:16;;;;;;;;;;;;;;;;;;5034928;28;20053;-74
2022/08/11 02:27:47;;;;;;;10.15;6.90;;;;;;;;;;5035777;28;19928;-74
2022/08/11 02:30:20;;;;;;;7.07;6.38;;;;;;;;;;5035087;28;20049;-74
2022/08/11 02:35:41;;;;;;;8.52;6.93;;;;;;;;;;5066582;28;20049;-74
2022/08/11 02:38:20;;;;;;;7.28;6.10;;;;;;;;;;5034515;28;20057;-74
2022/08/11 02:40:49;;;;;;;6.88;6.22;;;;;;;;;;5034313;28;20528;-74
2022/08/11 02:43:18;;;;;;;6.68;6.03;;;;;;;;;;5034809;28;20054;-74
2022/08/11 02:45:52;;;;;;;7.35;6.22;;;;;;;;;;5035334;28;20120;-74
2022/08/11 02:51:19;;;;;;;7.43;5.93;;;;;;;;;;5034692;28;20081;-74
2022/08/11 02:53:57;;;;;;;7.35;6.05;;;;;;;;;;5067471;28;20105;-74
2022/08/11 02:56:44;;;;;;;7.05;6.30;;;;;;;;;;5065727;28;20049;-74
2022/08/11 03:02:10;;;;;;;6.97;5.80;;;;;;;;;;5041660;28;20041;-74
2022/08/11 03:04:50;;;;;;;6.30;5.70;;;;;;;;;;5054015;28;20390;-74
2022/08/11 03:07:30;;;;;;;7.90;6.20;;;;;;;;;;5053917;28;20524;-74
2022/08/11 03:10:11;;;;;;;6.43;5.55;;;;;;;;;;5042781;28;20375;-74
2022/08/11 03:18:29;;;;;;;6.97;5.78;;;;;;;;;;5042290;28;20489;-74
2022/08/11 03:21:14;;;;;;;6.90;6.20;;;;;;;;;;5053372;28;20045;-74
2022/08/11 03:23:49;;;;;;;6.75;6.00;;;;;;;;;;5053161;28;20447;-74
2022/08/11 03:26:29;;;;;;;6.70;6.10;;;;;;;;;;5054284;28;20084;-74
2022/08/11 03:29:14;;;;;;;7.35;6.20;;;;;;;;;;5034059;28;20064;-74
2022/08/11 03:31:45;;;;;;;8.48;6.13;;;;;;;;;;5033547;28;20045;-74
2022/08/11 03:34:25;;;;;;;6.65;5.95;;;;;;;;;;5034503;28;20049;-74
2022/08/11 03:36:51;;;;;;;6.82;6.13;;;;;;;;;;5034586;28;20045;-74
2022/08/11 03:39:36;;;;;;;7.40;6.38;;;;;;;;;;5033792;28;20041;-74
2022/08/11 03:42:08;;;;;;;6.93;6.18;;;;;;;;;;5066047;28;20075;-74
2022/08/11 03:44:34;;;;;;;7.45;6.43;;;;;;;;;;5066571;28;20481;-74
2022/08/11 03:47:19;;;;;;;8.43;6.57;;;;;;;;;;5033667;28;20049;-74
2022/08/11 03:50:01;;;;;;;7.68;6.90;;;;;;;;;;5039167;28;20580;-74
2022/08/11 03:52:46;;;;;;;7.80;6.32;;;;;;;;;;5033979;28;20033;-74
2022/08/11 03:55:23;;;;;;;7.00;5.97;;;;;;;;;;5034159;28;20081;-74
2022/08/11 03:57:59;;;;;;;8.82;6.93;;;;;;;;;;5050912;28;20393;-74
2022/08/11 04:00:25;;;;;;;9.70;6.70;;;;;;;;;;5052040;28;20108;-74
2022/08/11 04:03:07;;;;;;;7.70;6.47;;;;;;;;;;5041873;28;20057;-74
2022/08/11 04:05:32;;;;;;;7.70;6.45;;;;;;;;;;5032537;28;20181;-74
2022/08/11 04:08:17;;;;;;;8.55;6.90;;;;;;;;;;5050383;28;20128;-74
2022/08/11 04:10:49;;;;;;;8.68;6.45;;;;;;;;;;5052437;28;20051;-74
2022/08/11 04:13:41;;;;;;;7.63;6.65;;;;;;;;;;5052507;28;20049;-74
2022/08/11 04:16:13;;;;;;;8.68;6.38;;;;;;;;;;5032332;28;20120;-74
2022/08/11 04:19:12;;;;;;;6.80;6.15;;;;;;;;;;5033825;28;20076;-74
2022/08/11 04:21:50;;;;;;;8.57;6.40;;;;;;;;;;5032730;28;20087;-74
2022/08/11 04:24:36;;;;;;;8.38;6.10;;;;;;;;;;5032215;28;20408;-74
2022/08/11 04:27:24;;;;;;;8.00;6.07;;;;;;;;;;5033609;28;20053;-74
2022/08/11 04:29:50;;;;;;;7.38;6.25;;;;;;;;;;5064989;28;20075;-74
2022/08/11 04:32:22;;;;;;;7.47;6.47;;;;;;;;;;5078481;28;20057;-74
2022/08/11 04:35:06;;;;;;;8.15;6.68;;;;;;;;;;5051259;28;20080;-74
2022/08/11 04:37:33;;;;;;;;;;;;;;;;;;5051904;28;20056;-74
2022/08/11 04:40:18;;;;;;;8.00;5.88;;;;;;;;;;5031964;28;19929;-74
2022/08/11 04:45:54;;;;;;;6.78;6.03;;;;;;;;;;5032046;28;20054;-74
2022/08/11 05:03:02;;;;;;;6.88;6.13;;;;;;;;;;5064843;28;19921;-74
2022/08/11 05:05:34;;;;;;;10.15;6.88;;;;;;;;;;5033072;28;20068;-74
2022/08/11 05:08:18;;;;;;;7.38;6.25;;;;;;;;;;5032603;28;20045;-74
2022/08/11 05:10:53;;;;;;;7.57;6.65;;;;;;;;;;5032189;28;20090;-74
2022/08/11 05:36:27;;;;;;;8.82;6.65;;;;;;;;;;5032215;28;20440;-74
2022/08/11 05:58:32;;;;;;;8.80;6.63;;;;;;;;;;5032254;28;20045;-74
2022/08/11 06:00:58;;;;;;;10.32;7.20;;;;;;;;;;5030307;28;20057;-74
2022/08/11 06:03:28;;;;;;;8.15;6.70;;;;;;;;;;5030498;28;20069;-74
2022/08/11 06:05:55;;;;;;;8.02;7.28;;;;;;;;;;5064319;28;20085;-74
2022/08/11 06:08:29;;;;;;;9.90;7.38;;;;;;;;;;5063592;28;20103;-75
2022/08/11 06:11:00;;;;;;;11.23;7.85;;;;;;;;;;5064108;28;20114;-75
2022/08/11 06:13:27;;;;;;;8.25;7.10;;;;;;;;;;5031798;28;20116;-74
2022/08/11 06:15:54;;;;;;;8.48;7.50;;;;;;;;;;5063733;28;20507;-74
2022/08/11 06:18:20;;;;;;;8.05;7.00;;;;;;;;;;5064350;28;20389;-75
2022/08/11 06:20:52;;;;;;;7.43;6.35;;;;;;;;;;5063537;28;20461;-75
2022/08/11 06:23:21;;;;;;;7.95;6.70;;;;;;;;;;5076905;28;20485;-74
2022/08/11 06:25:48;;;;;;;7.93;6.80;;;;;;;;;;5050608;28;20068;-74
2022/08/11 06:28:18;;;;;;;13.68;6.78;;;;;;;;;;5036400;28;20042;-75
2022/08/11 06:30:45;;;;;;;7.82;6.75;;;;;;;;;;5031408;28;20124;-75
2022/08/11 06:33:12;;;;;;;8.90;7.15;;;;;;;;;;5034496;28;20413;-75
2022/08/11 06:35:47;;;;;;;7.25;6.18;;;;;;;;;;5067028;28;20427;-75
2022/08/11 06:38:15;;;;;;;7.07;6.40;;;;;;;;;;5067797;28;20089;-74
2022/08/11 06:44:03;;;;;;;7.45;5.70;;;;;;;;;;5053104;28;20083;-74
2022/08/11 06:46:31;;;;;;;7.15;6.35;;;;;;;;;;5054350;28;20057;-74
2022/08/11 06:49:01;;;;;;;6.60;6.00;;;;;;;;;;5054379;28;20049;-75
2022/08/11 06:51:27;;;;;;;6.25;5.65;;;;;;;;;;5054107;28;20073;-74
2022/08/11 06:53:58;;;;;;;7.00;6.30;;;;;;;;;;5043941;28;20076;-74
2022/08/11 07:02:07;;;;;;;6.60;5.72;;;;;;;;;;5067048;28;20057;-75
2022/08/11 07:04:42;;;;;;;7.88;6.38;;;;;;;;;;5065803;28;20037;-75
2022/08/11 07:15:43;;;;;;;5.45;4.80;;;;;;;;;;5034846;28;20041;-75
2022/08/11 07:29:34;;;;;;;5.03;4.30;;;;;;;;;;5034787;28;20056;-75
2022/08/11 07:32:06;;;;;;;6.57;4.90;;;;;;;;;;5033592;28;20545;-74
2022/08/11 07:34:36;;;;;;;7.25;4.70;;;;;;;;;;5033205;28;20052;-75
2022/08/11 07:37:11;;;;;;;7.18;5.10;;;;;;;;;;5066699;28;20057;-74
2022/08/11 07:39:38;;;;;;;7.43;5.22;;;;;;;;;;5065405;28;20128;-75
2022/08/11 07:42:09;;;;;;;6.60;5.03;;;;;;;;;;5066342;28;20049;-74
2022/08/11 07:48:10;;;;;;;5.85;5.00;;;;;;;;;;5033733;28;20061;-75
2022/08/11 07:52:57;;;;;;;6.05;5.43;;;;;;;;;;5046804;28;20447;-75
2022/08/11 07:55:33;;;;;;;5.20;4.68;;;;;;;;;;5052862;28;20053;-75
2022/08/11 08:20:09;;;;;;;8.40;5.40;;;;;;;;;;5032993;28;20053;-75
2022/08/11 08:22:36;;;;;;;7.43;4.90;;;;;;;;;;5065270;28;20049;-75
2022/08/11 08:25:02;;;;;;;6.20;5.18;;;;;;;;;;5033651;28;20049;-75
2022/08/11 08:27:28;;;;;;;7.28;4.45;;;;;;;;;;5032543;28;20050;-75
2022/08/11 08:32:41;;;;;;;5.40;4.60;;;;;;;;;;5065441;28;20085;-75
2022/08/11 08:35:09;;;;;;;4.50;4.10;;;;;;;;;;5064544;28;20128;-75
2022/08/11 08:37:35;;;;;;;4.30;3.70;;;;;;;;;;5077208;28;20079;-74
2022/08/11 08:40:01;;;;;;;3.95;3.42;;;;;;;;;;5052158;28;20044;-75
2022/08/11 08:42:29;;;;;;;4.97;3.50;;;;;;;;;;5046584;28;20188;-75
2022/08/11 08:45:01;;;;;;;5.80;3.55;;;;;;;;;;5033418;28;20038;-75
2022/08/11 08:47:28;;;;;;;4.90;3.20;;;;;;;;;;5031980;28;20049;-75
2022/08/11 08:49:58;;;;;;;3.65;3.00;;;;;;;;;;5043009;28;20186;-75
2022/08/11 08:52:26;;;;;;;5.15;3.47;;;;;;;;;;5051729;28;20045;-75
2022/08/11 08:54:55;;;;;;;3.80;2.90;;;;;;;;;;5048000;28;20668;-75
2022/08/11 08:57:22;;;;;;;5.03;2.55;;;;;;;;;;5032799;28;20041;-75
2022/08/11 08:59:49;;;;;;;3.25;2.50;;;;;;;;;;5032829;28;20048;-75
2022/08/11 09:02:16;;;;;;;3.05;2.60;;;;;;;;;;5050445;28;20057;-75
2022/08/11 09:04:44;;;;;;;2.75;2.50;;;;;;;;;;5053197;28;20086;-75
2022/08/11 09:07:11;;;;;;;3.17;2.40;;;;;;;;;;5052815;28;20048;-75
2022/08/11 09:09:42;;;;;;;4.40;2.40;;;;;;;;;;5032025;28;20088;-75
2022/08/11 09:12:10;;;;;;;2.25;2.08;;;;;;;;;;5032580;28;20067;-75
2022/08/11 09:17:22;;;;;;;2.85;2.40;;;;;;;;;;5063931;28;20045;-75
2022/08/11 09:19:49;;;;;;;3.00;2.70;;;;;;;;;;5043346;28;20064;-75
2022/08/11 09:27:52;;;;;;;3.50;2.55;;;;;;;;;;5032482;28;20405;-75
2022/08/11 09:30:24;;;;;;;6.18;3.42;;;;;;;;;;5047101;28;20408;-75
2022/08/11 09:32:58;;;;;;;4.05;2.38;;;;;;;;;;5051142;28;20413;-75
2022/08/11 09:35:27;;;;;;;3.65;2.33;;;;;;;;;;5048549;28;20091;-75
2022/08/11 09:40:43;;;;;;;6.00;2.97;;;;;;;;;;5031080;28;20053;-75
2022/08/11 09:45:55;;;;;;;2.97;2.22;;;;;;;;;;5031812;28;20045;-75
2022/08/11 09:48:22;;;;;;;3.28;1.98;;;;;;;;;;5043889;28;20045;-75
2022/08/11 09:50:49;;;;;;;3.17;2.15;;;;;;;;;;5050643;28;20068;-75
2022/08/11 09:53:16;;;;;;;2.10;1.90;;;;;;;;;;5044801;28;20071;-75
2022/08/11 09:55:46;;;;;;;5.13;2.10;;;;;;;;;;5051875;28;20053;-75
2022/08/11 09:58:13;;;;;;;4.03;2.20;;;;;;;;;;5045200;28;20041;-75
2022/08/11 10:00:40;;;;;;;2.28;2.00;;;;;;;;;;5030912;28;20103;-75
2022/08/11 10:03:15;;;;;;;2.30;2.10;;;;;;;;;;5032339;28;20055;-75
2022/08/11 10:08:32;;;;;;;2.17;1.88;;;;;;;;;;5068234;28;20046;-75
2022/08/11 10:10:58;;;;;;;4.38;2.30;;;;;;;;;;5036002;28;20106;-75
2022/08/11 10:13:33;;;;;;;3.20;2.40;;;;;;;;;;5034669;28;20183;-75
2022/08/11 10:16:06;;;;;;;2.30;1.80;;;;;;;;;;5067831;28;20049;-75
2022/08/11 10:18:41;;;;;;;4.10;2.10;;;;;;;;;;5036145;28;20051;-75
2022/08/11 10:21:10;;;;;;;4.13;1.90;;;;;;;;;;5066863;28;20115;-75
2022/08/11 10:34:39;;;;;;;2.63;1.95;;;;;;;;;;5036825;28;20077;-75
2022/08/11 10:37:06;;;;;;;3.30;2.08;;;;;;;;;;5054221;28;20060;-75
2022/08/11 10:39:34;;;;;;;3.95;1.83;;;;;;;;;;5054030;28;20497;-76
2022/08/11 10:44:45;;;;;;;3.28;1.80;;;;;;;;;;5041825;28;20049;-75
2022/08/11 11:00:59;;;;;;;2.58;1.98;;;;;;;;;;5034802;28;20049;-75
2022/08/11 11:03:27;;;;;;;2.67;2.00;;;;;;;;;;5051436;28;20096;-76
2022/08/11 11:05:55;;;;;;;2.25;1.90;;;;;;;;;;5053134;28;20041;-76
2022/08/11 11:11:12;;;;;;;2.17;1.98;;;;;;;;;;5033349;28;20149;-75
2022/08/11 11:19:09;;;;;;;2.10;1.88;;;;;;;;;;5053156;28;20484;-75
2022/08/11 11:21:36;;;;;;;3.70;2.10;;;;;;;;;;5054446;28;20088;-75
2022/08/11 11:24:03;;;;;;;2.22;2.00;;;;;;;;;;5038643;28;20057;-75
2022/08/11 11:26:39;;;;;;;2.88;2.10;;;;;;;;;;5034691;28;20045;-75
2022/08/11 11:29:24;;;;;;;2.85;1.98;;;;;;;;;;5033381;28;20041;-75
2022/08/11 11:32:09;;;;;;;3.25;1.88;;;;;;;;;;5065752;28;20057;-73
2022/08/11 11:34:42;;;;;;;4.90;2.10;;;;;;;;;;5074790;28;20084;-74
2022/08/11 11:37:10;;;;;;;2.08;1.75;;;;;;;;;;5051717;28;20382;-74
2022/08/11 11:39:36;;;;;;;2.95;1.80;;;;;;;;;;5040644;28;20060;-73
2022/08/11 11:42:07;;;;;;;3.47;2.17;;;;;;;;;;5034450;28;20128;-73
2022/08/11 11:44:34;;;;;;;3.78;1.90;;;;;;;;;;5033683;28;20374;-73
2022/08/11 11:47:00;;;;;;;2.30;1.70;;;;;;;;;;5039039;28;20051;-73
2022/08/11 11:49:28;;;;;;;1.75;1.65;;;;;;;;;;5052784;28;20076;-74
2022/08/11 11:51:55;;;;;;;2.78;1.92;;;;;;;;;;5051995;28;20057;-74
2022/08/11 11:54:23;;;;;;;3.03;2.00;;;;;;;;;;5044541;28;20128;-74
2022/08/11 11:56:52;;;;;;;2.85;2.00;;;;;;;;;;5053001;28;20393;-74
2022/08/11 12:02:03;;;;;;;3.30;2.15;;;;;;;;;;5033944;28;20053;-74
2022/08/11 12:04:30;;;;;;;2.55;1.77;;;;;;;;;;5033892;28;20450;-74
2022/08/11 12:08:08;;;;;;;3.28;2.10;;;;;;;;;;5065244;28;20057;-73
2022/08/11 12:09:42;;;;;;;3.50;1.92;;;;;;;;;;5033718;28;20045;-74
2022/08/11 12:14:54;;;;;;;6.53;2.30;;;;;;;;;;5033687;28;20057;-74
2022/08/11 12:17:20;;;;;;;3.05;2.38;;;;;;;;;;5033703;28;20404;-74
2022/08/11 12:19:46;;;;;;;2.90;2.58;;;;;;;;;;5032937;28;20049;-74
2022/08/11 12:27:42;;;;;;;3.70;2.25;;;;;;;;;;5032544;28;20402;-73
2022/08/11 12:30:09;;;;;;;3.50;2.20;;;;;;;;;;5038685;28;20091;-74
2022/08/11 12:32:36;;;;;;;2.65;2.40;;;;;;;;;;5052256;28;20041;-75
2022/08/11 12:35:02;;;;;;;3.13;2.40;;;;;;;;;;5050904;28;20481;-76
2022/08/11 12:37:30;;;;;;;7.05;2.70;;;;;;;;;;5039194;28;20046;-76
2022/08/11 12:45:30;;;;;;;4.30;2.40;;;;;;;;;;5031743;28;20477;-75
2022/08/11 12:53:45;;;;;;;3.50;2.33;;;;;;;;;;5031838;28;20057;-75
2022/08/11 13:07:12;;;;;;;2.97;2.00;;;;;;;;;;5051594;28;20049;-74
2022/08/11 13:09:39;;;;;;;4.22;2.20;;;;;;;;;;5041014;28;20052;-73
2022/08/11 13:14:50;;;;;;;9.45;2.40;;;;;;;;;;5037111;28;20053;-73
2022/08/11 13:17:23;;;;;;;2.72;2.15;;;;;;;;;;5051956;28;20103;-73
2022/08/11 13:19:50;;;;;;;2.78;2.00;;;;;;;;;;5051174;28;20053;-73
2022/08/11 13:22:17;;;;;;;2.47;1.90;;;;;;;;;;5050319;28;20061;-73
2022/08/11 13:24:44;;;;;;;3.05;1.95;;;;;;;;;;5042734;28;20049;-73
2022/08/11 13:27:13;;;;;;;2.70;2.00;;;;;;;;;;5031641;28;20409;-74
2022/08/11 13:29:42;;;;;;;2.30;2.10;;;;;;;;;;5031529;28;20046;-76
2022/08/11 13:32:08;;;;;;;3.50;1.85;;;;;;;;;;5032615;28;20080;-74
2022/08/11 13:34:40;;;;;;;2.58;2.13;;;;;;;;;;5064831;28;20046;-74
2022/08/11 13:37:07;;;;;;;4.38;1.95;;;;;;;;;;5063772;28;20508;-74
2022/08/11 13:39:34;;;;;;;4.05;1.88;;;;;;;;;;5065299;28;20103;-74
2022/08/11 13:42:01;;;;;;;2.88;1.90;;;;;;;;;;5068674;28;20512;-74
2022/08/11 13:44:28;;;;;;;2.38;1.95;;;;;;;;;;5036011;28;20045;-75
2022/08/11 13:47:00;;;;;;;3.08;2.00;;;;;;;;;;5075078;28;20053;-74
2022/08/11 13:49:26;;;;;;;4.18;1.80;;;;;;;;;;5056640;28;20064;-75
2022/08/11 13:51:53;;;;;;;2.38;1.80;;;;;;;;;;5055250;28;20049;-75
2022/08/11 13:54:22;;;;;;;5.13;1.80;;;;;;;;;;5038706;28;20053;-75
2022/08/11 13:56:51;;;;;;;2.60;1.83;;;;;;;;;;5056394;28;20182;-75
2022/08/11 13:59:24;;;;;;;3.95;1.90;;;;;;;;;;5037101;28;20053;-75
2022/08/11 14:01:53;;;;;;;4.13;2.38;;;;;;;;;;5035612;28;20056;-75
2022/08/11 14:04:23;;;;;;;2.65;1.90;;;;;;;;;;5035063;28;20412;-75
2022/08/11 14:06:51;;;;;;;2.25;2.00;;;;;;;;;;5067620;28;20045;-75
2022/08/11 14:09:22;;;;;;;2.05;1.85;;;;;;;;;;5035530;28;20056;-75
2022/08/11 14:14:35;;;;;;;2.53;2.17;;;;;;;;;;5035931;28;20053;-75
2022/08/11 14:17:04;;;;;;;5.03;2.60;;;;;;;;;;5036176;28;20046;-75
2022/08/11 14:19:32;;;;;;;3.50;1.67;;;;;;;;;;5066933;28;20132;-74
2022/08/11 14:22:09;;;;;;;2.83;1.90;;;;;;;;;;5035691;28;20049;-75
2022/08/11 14:24:42;;;;;;;3.47;2.00;;;;;;;;;;5035534;28;20064;-75
2022/08/11 14:27:10;;;;;;;2.95;2.00;;;;;;;;;;5035170;28;20049;-75
2022/08/11 14:29:38;;;;;;;3.10;1.80;;;;;;;;;;5067877;28;20401;-75
2022/08/11 14:32:09;;;;;;;2.00;1.77;;;;;;;;;;5067667;28;20046;-75
2022/08/11 14:34:36;;;;;;;4.45;1.80;;;;;;;;;;5034701;28;20041;-75
2022/08/11 14:37:03;;;;;;;1.80;1.40;;;;;;;;;;5034487;28;20049;-75
2022/08/11 14:39:35;;;;;;;3.17;2.00;;;;;;;;;;5044088;28;20049;-75
2022/08/11 14:47:36;;;;;;;2.65;1.80;;;;;;;;;;5033384;28;20053;-75
2022/08/11 14:50:03;;;;;;;2.78;1.50;;;;;;;;;;5034154;28;20049;-75
2022/08/11 14:52:31;;;;;;;2.22;1.30;;;;;;;;;;5043035;28;20074;-75
2022/08/11 14:57:42;;;;;;;3.22;1.35;;;;;;;;;;5052782;28;20054;-75
2022/08/11 15:00:11;;;;;;;1.50;1.40;;;;;;;;;;5035310;28;20048;-75
2022/08/11 15:05:24;;;;;;;2.28;1.48;;;;;;;;;;5067093;28;20501;-76
2022/08/11 15:07:51;;;;;;;1.48;1.05;;;;;;;;;;5034341;28;20048;-76
2022/08/11 15:10:18;;;;;;;4.68;1.60;;;;;;;;;;5035121;28;20045;-76
2022/08/11 15:12:44;;;;;;;3.83;1.20;;;;;;;;;;5034947;28;20049;-76
2022/08/11 15:17:59;;;;;;;1.42;1.30;;;;;;;;;;5034414;28;20089;-76
2022/08/11 15:26:01;;;;;;;1.20;1.10;;;;;;;;;;5066785;28;20196;-76
2022/08/11 15:37:25;;;;;;;1.15;1.00;;;;;;;;;;5034852;28;20049;-76
2022/08/11 15:48:38;;;;;;;1.42;0.93;;;;;;;;;;5034429;28;20042;-76
2022/08/11 15:51:12;;;;;;;1.48;1.25;;;;;;;;;;5023028;28;20563;-77
2022/08/11 15:53:40;;;;;;;3.90;1.02;;;;;;;;;;5044773;28;20128;-76
2022/08/11 15:56:06;;;;;;;4.38;1.08;;;;;;;;;;5040388;28;20404;-77
2022/08/11 16:04:10;;;;;;;1.73;1.05;;;;;;;;;;5032424;28;20378;-76
2022/08/11 16:06:55;;;;;;;1.83;1.05;;;;;;;;;;5034185;28;20116;-77
2022/08/11 16:09:33;;;;;;;2.28;1.00;;;;;;;;;;5033499;28;20088;-76
2022/08/11 16:12:01;;;;;;;1.95;0.95;;;;;;;;;;5052445;28;20037;-76
2022/08/11 16:17:16;;;;;;;1.33;0.90;;;;;;;;;;5038861;28;20049;-76
2022/08/11 16:19:43;;;;;;;3.28;0.90;;;;;;;;;;5032890;28;20485;-76
2022/08/11 16:22:11;;;;;;;3.03;1.00;;;;;;;;;;5032420;28;20428;-76
2022/08/11 16:24:38;;;;;;;2.25;1.10;;;;;;;;;;5033028;28;20164;-76
2022/08/11 16:27:04;;;;;;;3.88;1.30;;;;;;;;;;5035609;28;20072;-76
2022/08/11 16:29:31;;;;;;;2.50;1.08;;;;;;;;;;5053475;28;20041;-76
2022/08/11 16:32:16;;;;;;;3.00;0.93;;;;;;;;;;5053621;28;20142;-76
2022/08/11 16:40:16;;;;;;;3.30;1.00;;;;;;;;;;5047199;28;20049;-76
2022/08/11 16:48:15;;;;;;;4.22;1.10;;;;;;;;;;5031215;28;20132;-76
2022/08/11 16:50:42;;;;;;;2.78;1.13;;;;;;;;;;5033417;28;20436;-75
2022/08/11 16:53:08;;;;;;;2.25;1.17;;;;;;;;;;5034957;28;20052;-75
2022/08/11 16:55:34;;;;;;;4.68;1.17;;;;;;;;;;5052343;28;20041;-76
2022/08/11 17:00:45;;;;;;;2.40;1.00;;;;;;;;;;5032660;28;20041;-76
2022/08/11 17:14:20;;;;;;;2.05;1.02;;;;;;;;;;5066407;28;20501;-76
2022/08/11 17:16:47;;;;;;;2.88;1.27;;;;;;;;;;5053019;28;20055;-76
2022/08/11 17:19:21;;;;;;;1.35;0.90;;;;;;;;;;5052919;28;20063;-76
2022/08/11 17:24:35;;;;;;;4.38;1.00;;;;;;;;;;5043210;28;20053;-76
2022/08/11 17:27:02;;;;;;;1.40;1.00;;;;;;;;;;5031456;28;20045;-75
2022/08/11 17:29:28;;;;;;;2.85;1.20;;;;;;;;;;5031956;28;20052;-75
2022/08/11 17:37:29;;;;;;;2.17;0.95;;;;;;;;;;5031875;28;20046;-76
2022/08/11 17:39:56;;;;;;;2.72;1.10;;;;;;;;;;5032359;28;20057;-76
2022/08/11 17:50:38;;;;;;;3.35;1.40;;;;;;;;;;5063965;28;20049;-76
2022/08/11 18:01:23;;;;;;;3.35;1.30;;;;;;;;;;5032023;28;20049;-75
2022/08/11 18:03:50;;;;;;;3.08;1.10;;;;;;;;;;5031396;28;20421;-75
2022/08/11 18:06:17;;;;;;;0.90;0.90;;;;;;;;;;5032242;28;20077;-75
